createdAt,value
2023-03-20T00:01:14.799Z,1.30
2023-03-20T00:03:24.701Z,1.45
2023-03-20T00:05:30.239Z,1.63
2023-03-20T00:07:34.030Z,1.35
2023-03-20T00:09:37.962Z,1.40
2023-03-20T00:11:49.537Z,1.30
2023-03-20T00:13:53.407Z,1.55
2023-03-20T00:15:57.383Z,1.23
2023-03-20T00:18:02.940Z,1.40
2023-03-20T00:20:07.217Z,1.45
2023-03-20T00:22:11.432Z,1.42
2023-03-20T00:24:16.751Z,1.20
2023-03-20T00:26:21.073Z,1.42
2023-03-20T00:28:39.204Z,1.35
2023-03-20T00:30:43.341Z,1.45
2023-03-20T00:32:48.455Z,1.33
2023-03-20T00:34:54.688Z,1.30
2023-03-20T00:37:00.252Z,1.33
2023-03-20T00:39:06.998Z,1.77
2023-03-20T00:41:25.430Z,1.02
2023-03-20T00:43:29.912Z,1.60
2023-03-20T00:45:36.967Z,1.40
2023-03-20T00:47:42.438Z,1.98
2023-03-20T00:49:48.387Z,1.80
2023-03-20T00:51:53.929Z,1.92
2023-03-20T00:53:58.005Z,1.65
2023-03-20T00:56:02.165Z,2.00
2023-03-20T00:58:06.642Z,1.85
2023-03-20T01:00:21.534Z,2.53
2023-03-20T01:02:29.256Z,2.20
2023-03-20T01:04:38.667Z,1.90
2023-03-20T01:06:42.476Z,1.65
2023-03-20T01:08:49.183Z,2.17
2023-03-20T01:10:56.514Z,2.03
2023-03-20T01:13:03.028Z,1.98
2023-03-20T01:15:18.250Z,2.00
2023-03-20T01:17:24.293Z,2.08
2023-03-20T01:19:28.891Z,1.40
2023-03-20T01:21:32.888Z,1.65
2023-03-20T01:23:36.742Z,1.42
2023-03-20T01:25:42.698Z,1.75
2023-03-20T01:27:51.313Z,1.60
2023-03-20T01:29:56.688Z,1.92
2023-03-20T01:32:00.819Z,1.92
2023-03-20T01:34:06.621Z,2.08
2023-03-20T01:36:13.415Z,1.65
2023-03-20T01:38:22.213Z,1.50
2023-03-20T01:40:36.759Z,1.73
2023-03-20T01:42:42.489Z,1.38
2023-03-20T01:44:47.589Z,1.63
2023-03-20T01:46:54.124Z,2.28
2023-03-20T01:49:08.878Z,1.60
2023-03-20T01:51:12.901Z,1.50
2023-03-20T01:53:20.714Z,1.75
2023-03-20T01:55:30.669Z,1.90
2023-03-20T01:57:37.956Z,1.73
2023-03-20T01:59:47.577Z,1.85
2023-03-20T02:01:52.185Z,2.17
2023-03-20T02:03:58.825Z,2.05
2023-03-20T02:06:27.573Z,1.80
2023-03-20T02:09:04.667Z,2.25
2023-03-20T02:11:16.666Z,2.53
2023-03-20T02:13:21.172Z,2.28
2023-03-20T02:15:29.572Z,2.22
2023-03-20T02:17:47.163Z,2.78
2023-03-20T02:20:05.727Z,2.45
2023-03-20T02:22:51.351Z,2.17
2023-03-20T02:25:34.300Z,2.42
2023-03-20T02:27:46.042Z,2.22
2023-03-20T02:30:40.614Z,1.98
2023-03-20T02:33:19.331Z,2.40
2023-03-20T02:36:04.709Z,1.73
2023-03-20T02:38:36.859Z,2.15
2023-03-20T02:40:50.036Z,2.15
2023-03-20T02:43:01.865Z,2.30
2023-03-20T02:45:15.906Z,1.92
2023-03-20T02:47:27.298Z,2.17
2023-03-20T02:49:51.701Z,2.58
2023-03-20T02:52:03.119Z,1.42
2023-03-20T02:54:16.022Z,2.35
2023-03-20T02:56:26.450Z,1.75
2023-03-20T02:58:38.875Z,1.75
2023-03-20T03:00:51.023Z,2.00
2023-03-20T03:03:04.534Z,1.90
2023-03-20T03:05:14.959Z,1.75
2023-03-20T03:07:23.032Z,2.10
2023-03-20T03:09:33.209Z,1.98
2023-03-20T03:11:43.001Z,1.75
2023-03-20T03:13:53.230Z,1.95
2023-03-20T03:16:03.565Z,2.00
2023-03-20T03:18:13.023Z,1.67
2023-03-20T03:20:24.043Z,1.90
2023-03-20T03:22:28.473Z,1.65
2023-03-20T03:24:41.397Z,1.63
2023-03-20T03:26:48.631Z,1.77
2023-03-20T03:28:55.984Z,2.03
2023-03-20T03:31:02.190Z,1.60
2023-03-20T03:33:15.564Z,1.10
2023-03-20T03:35:21.911Z,1.80
2023-03-20T03:37:40.759Z,1.52
2023-03-20T03:39:53.370Z,1.67
2023-03-20T03:42:04.881Z,1.88
2023-03-20T03:44:16.156Z,1.92
2023-03-20T03:46:26.826Z,2.08
2023-03-20T03:48:34.080Z,1.65
2023-03-20T03:50:48.059Z,1.95
2023-03-20T03:52:53.874Z,1.80
2023-03-20T03:55:04.347Z,1.80
2023-03-20T03:57:10.386Z,1.63
2023-03-20T03:59:22.273Z,1.95
2023-03-20T04:01:29.312Z,1.70
2023-03-20T04:03:36.648Z,1.90
2023-03-20T04:05:44.247Z,1.75
2023-03-20T04:07:48.666Z,1.90
2023-03-20T04:09:53.923Z,1.67
2023-03-20T04:11:59.913Z,1.77
2023-03-20T04:14:03.408Z,1.90
2023-03-20T04:16:08.534Z,2.25
2023-03-20T04:18:17.410Z,1.50
2023-03-20T04:20:22.917Z,1.88
2023-03-20T04:22:26.499Z,1.88
2023-03-20T04:24:31.117Z,2.08
2023-03-20T04:26:34.662Z,2.00
2023-03-20T04:28:39.771Z,2.28
2023-03-20T04:31:03.343Z,2.20
2023-03-20T04:33:25.748Z,2.13
2023-03-20T04:35:53.120Z,2.25
2023-03-20T04:37:56.636Z,2.08
2023-03-20T04:40:00.451Z,2.10
2023-03-20T04:42:04.577Z,2.00
2023-03-20T04:44:09.626Z,2.00
2023-03-20T04:46:13.310Z,2.40
2023-03-20T04:50:21.844Z,2.50
2023-03-20T04:52:27.563Z,2.42
2023-03-20T04:54:31.154Z,2.50
2023-03-20T04:56:34.684Z,2.35
2023-03-20T04:58:48.600Z,2.58
2023-03-20T05:00:54.895Z,2.60
2023-03-20T05:02:58.519Z,2.70
2023-03-20T05:05:02.158Z,2.45
2023-03-20T05:07:06.066Z,2.30
2023-03-20T05:09:18.069Z,2.53
2023-03-20T05:11:22.245Z,2.55
2023-03-20T05:13:47.962Z,2.22
2023-03-20T05:16:12.988Z,2.90
2023-03-20T05:18:36.859Z,2.20
2023-03-20T05:21:13.043Z,2.47
2023-03-20T05:23:19.044Z,2.33
2023-03-20T05:26:00.562Z,2.15
2023-03-20T05:28:22.461Z,2.40
2023-03-20T05:30:36.741Z,2.22
2023-03-20T05:33:00.704Z,1.88
2023-03-20T05:35:04.882Z,2.33
2023-03-20T05:37:19.233Z,1.90
2023-03-20T05:39:42.611Z,2.17
2023-03-20T05:42:08.832Z,1.95
2023-03-20T05:44:47.699Z,2.38
2023-03-20T05:47:20.740Z,2.03
2023-03-20T05:49:34.894Z,2.25
2023-03-20T05:52:01.240Z,2.20
2023-03-20T05:54:16.253Z,1.88
2023-03-20T05:56:42.698Z,2.03
2023-03-20T05:59:02.913Z,1.92
2023-03-20T06:01:23.534Z,1.58
2023-03-20T06:03:29.735Z,1.70
2023-03-20T06:05:43.007Z,1.60
2023-03-20T06:07:46.678Z,1.58
2023-03-20T06:09:52.209Z,1.40
2023-03-20T06:11:55.595Z,1.42
2023-03-20T06:13:59.588Z,1.20
2023-03-20T06:16:11.996Z,1.70
2023-03-20T06:18:15.829Z,1.50
2023-03-20T06:20:19.664Z,1.10
2023-03-20T06:22:24.443Z,1.40
2023-03-20T06:24:27.945Z,1.65
2023-03-20T06:26:31.389Z,1.23
2023-03-20T06:28:40.176Z,1.17
2023-03-20T06:30:45.802Z,1.35
2023-03-20T06:32:53.898Z,1.65
2023-03-20T06:35:00.173Z,2.78
2023-03-20T06:37:03.731Z,1.40
2023-03-20T06:39:09.017Z,3.05
2023-03-20T06:41:18.896Z,2.42
2023-03-20T06:43:31.945Z,3.58
2023-03-20T06:45:36.792Z,3.20
2023-03-20T06:47:47.451Z,1.40
2023-03-20T06:49:51.173Z,2.53
2023-03-20T06:51:54.763Z,2.92
2023-03-20T06:54:01.268Z,1.58
2023-03-20T06:56:06.968Z,1.80
2023-03-20T06:58:10.785Z,1.15
2023-03-20T07:00:16.051Z,1.75
2023-03-20T07:02:20.403Z,1.33
2023-03-20T07:04:24.237Z,1.60
2023-03-20T07:06:31.145Z,1.52
2023-03-20T07:08:35.508Z,1.58
2023-03-20T07:10:39.243Z,2.22
2023-03-20T07:12:44.783Z,2.05
2023-03-20T07:14:48.756Z,1.25
2023-03-20T07:16:56.574Z,1.00
2023-03-20T07:19:00.238Z,1.02
2023-03-20T07:21:08.067Z,0.77
2023-03-20T07:23:13.436Z,1.60
2023-03-20T07:25:20.571Z,0.98
2023-03-20T07:27:30.670Z,0.80
2023-03-20T07:29:37.250Z,0.80
2023-03-20T07:31:47.637Z,0.55
2023-03-20T07:33:59.830Z,0.82
2023-03-20T07:36:03.764Z,0.80
2023-03-20T07:38:08.283Z,1.00
2023-03-20T07:40:22.166Z,0.90
2023-03-20T07:42:33.340Z,1.77
2023-03-20T07:44:49.565Z,1.33
2023-03-20T07:46:54.186Z,1.55
2023-03-20T07:49:00.629Z,0.52
2023-03-20T07:51:05.326Z,0.95
2023-03-20T07:53:09.968Z,1.23
2023-03-20T07:55:16.181Z,1.25
2023-03-20T07:57:22.607Z,1.00
2023-03-20T07:59:27.020Z,0.95
2023-03-20T08:01:34.632Z,0.98
2023-03-20T08:03:40.101Z,0.90
2023-03-20T08:05:47.337Z,1.00
2023-03-20T08:07:52.712Z,1.60
2023-03-20T08:09:57.275Z,0.85
2023-03-20T08:12:01.553Z,0.77
2023-03-20T08:14:06.095Z,0.88
2023-03-20T08:16:11.326Z,0.88
2023-03-20T08:18:16.905Z,1.08
2023-03-20T08:20:22.141Z,0.80
2023-03-20T08:22:26.661Z,1.50
2023-03-20T08:24:31.379Z,0.68
2023-03-20T08:26:36.073Z,0.60
2023-03-20T08:28:47.546Z,0.80
2023-03-20T08:30:52.361Z,0.88
2023-03-20T08:32:58.645Z,0.82
2023-03-20T08:35:04.780Z,0.30
2023-03-20T08:37:10.442Z,0.80
2023-03-20T08:39:14.506Z,0.70
2023-03-20T08:41:19.032Z,0.70
2023-03-20T08:43:23.278Z,1.10
2023-03-20T08:45:27.268Z,0.95
2023-03-20T08:47:31.364Z,0.75
2023-03-20T08:49:35.707Z,0.85
2023-03-20T08:51:41.365Z,0.73
2023-03-20T08:53:45.236Z,1.30
2023-03-20T08:55:50.861Z,2.33
2023-03-20T08:57:57.666Z,1.25
2023-03-20T09:00:02.494Z,0.98
2023-03-20T09:02:07.312Z,0.75
2023-03-20T09:06:16.518Z,0.75
2023-03-20T09:08:22.798Z,1.27
2023-03-20T09:10:27.361Z,0.82
2023-03-20T09:12:32.234Z,0.82
2023-03-20T09:14:36.586Z,1.58
2023-03-20T09:16:40.388Z,1.20
2023-03-20T09:18:44.642Z,1.00
2023-03-20T09:20:49.152Z,1.58
2023-03-20T09:22:53.105Z,1.00
2023-03-20T09:24:58.267Z,0.82
2023-03-20T09:27:03.597Z,3.30
2023-03-20T09:29:09.035Z,0.80
2023-03-20T09:31:13.646Z,0.77
2023-03-20T09:33:18.752Z,0.80
2023-03-20T09:35:23.079Z,0.73
2023-03-20T09:37:27.203Z,0.80
2023-03-20T09:39:31.404Z,0.80
2023-03-20T09:41:49.257Z,0.50
2023-03-20T09:44:11.711Z,0.65
2023-03-20T09:46:39.691Z,1.02
2023-03-20T09:48:54.298Z,0.82
2023-03-20T09:51:07.747Z,1.10
2023-03-20T09:53:14.948Z,1.63
2023-03-20T09:55:23.891Z,1.80
2023-03-20T09:57:31.485Z,0.55
2023-03-20T09:59:37.807Z,0.80
2023-03-20T10:01:49.242Z,1.00
2023-03-20T10:03:57.243Z,1.30
2023-03-20T10:06:03.733Z,0.85
2023-03-20T10:08:15.028Z,1.05
2023-03-20T10:10:21.234Z,0.95
2023-03-20T10:12:46.000Z,9.88
2023-03-20T10:14:59.743Z,14.85
2023-03-20T10:17:16.981Z,0.85
2023-03-20T10:19:26.460Z,0.82
2023-03-20T10:21:38.776Z,0.88
2023-03-20T10:23:46.840Z,0.95
2023-03-20T10:25:53.349Z,0.98
2023-03-20T10:28:01.145Z,1.90
2023-03-20T10:30:24.167Z,1.02
2023-03-20T10:32:36.549Z,1.25
2023-03-20T10:34:58.527Z,1.90
2023-03-20T10:37:16.952Z,0.90
2023-03-20T10:39:30.775Z,1.00
2023-03-20T10:41:39.127Z,1.10
2023-03-20T10:43:46.306Z,1.40
2023-03-20T10:45:55.944Z,0.98
2023-03-20T10:48:04.429Z,1.75
2023-03-20T10:50:12.975Z,1.13
2023-03-20T10:52:21.226Z,0.98
2023-03-20T10:54:28.871Z,1.13
2023-03-20T10:56:39.489Z,0.88
2023-03-20T10:58:48.825Z,1.02
2023-03-20T11:00:55.629Z,1.05
2023-03-20T11:03:00.389Z,0.85
2023-03-20T11:05:10.310Z,0.80
2023-03-20T11:07:23.741Z,0.98
2023-03-20T11:09:30.163Z,1.17
2023-03-20T11:11:37.209Z,0.93
2023-03-20T11:13:44.068Z,0.88
2023-03-20T11:15:49.305Z,1.08
2023-03-20T11:17:55.364Z,0.90
2023-03-20T11:20:06.045Z,3.70
2023-03-20T11:22:21.463Z,0.80
2023-03-20T11:24:34.678Z,0.95
2023-03-20T11:26:40.789Z,2.15
2023-03-20T11:28:49.866Z,2.40
2023-03-20T11:31:06.995Z,5.97
2023-03-20T11:35:23.145Z,1.27
2023-03-20T11:37:30.148Z,11.65
2023-03-20T11:39:34.355Z,2.83
2023-03-20T11:41:44.186Z,4.90
2023-03-20T11:43:47.982Z,1.35
2023-03-20T11:45:56.474Z,9.57
2023-03-20T11:48:04.042Z,6.13
2023-03-20T11:50:26.709Z,5.00
2023-03-20T11:52:35.277Z,1.33
2023-03-20T11:54:48.809Z,1.33
2023-03-20T11:56:57.963Z,1.38
2023-03-20T11:59:06.113Z,1.08
2023-03-20T12:01:14.324Z,2.03
2023-03-20T12:03:43.763Z,1.77
2023-03-20T12:05:49.675Z,2.20
2023-03-20T12:07:58.287Z,1.48
2023-03-20T12:10:07.645Z,1.50
2023-03-20T12:12:21.169Z,1.08
2023-03-20T12:14:32.681Z,1.02
2023-03-20T12:16:39.476Z,1.20
2023-03-20T12:18:49.807Z,1.98
2023-03-20T12:21:05.851Z,1.13
2023-03-20T12:23:14.956Z,0.90
2023-03-20T12:25:24.402Z,1.42
2023-03-20T12:27:34.719Z,1.05
2023-03-20T12:29:44.969Z,1.10
2023-03-20T12:31:52.456Z,1.48
2023-03-20T12:34:02.901Z,1.08
2023-03-20T12:36:14.181Z,1.20
2023-03-20T12:38:26.330Z,0.93
2023-03-20T12:40:40.204Z,0.85
2023-03-20T12:42:58.917Z,2.60
2023-03-20T12:45:09.832Z,2.05
2023-03-20T12:47:24.472Z,0.98
2023-03-20T12:49:52.285Z,3.30
2023-03-20T12:52:04.554Z,1.00
2023-03-20T12:54:22.614Z,0.93
2023-03-20T12:56:37.510Z,1.15
2023-03-20T12:58:46.091Z,1.30
2023-03-20T13:01:01.030Z,1.10
2023-03-20T13:03:23.100Z,1.02
2023-03-20T13:05:38.713Z,0.85
2023-03-20T13:08:00.128Z,1.20
2023-03-20T13:10:24.060Z,1.00
2023-03-20T13:12:41.899Z,1.42
2023-03-20T13:14:54.989Z,1.38
2023-03-20T13:17:05.757Z,1.25
2023-03-20T13:19:17.458Z,1.00
2023-03-20T13:21:29.405Z,1.10
2023-03-20T13:23:42.857Z,1.33
2023-03-20T13:26:05.204Z,2.88
2023-03-20T13:28:15.995Z,1.00
2023-03-20T13:30:28.390Z,1.20
2023-03-20T13:32:46.625Z,1.00
2023-03-20T13:35:02.580Z,1.17
2023-03-20T13:37:23.897Z,1.23
2023-03-20T13:39:34.496Z,1.10
2023-03-20T13:41:38.713Z,1.27
2023-03-20T13:43:48.913Z,1.10
2023-03-20T13:46:00.804Z,1.00
2023-03-20T13:48:24.436Z,1.23
2023-03-20T13:50:39.341Z,1.17
2023-03-20T13:52:51.538Z,1.00
2023-03-20T13:55:12.106Z,1.33
2023-03-20T13:57:30.242Z,1.35
2023-03-20T14:00:00.921Z,1.15
2023-03-20T14:02:22.895Z,1.10
2023-03-20T14:04:29.173Z,0.88
2023-03-20T14:06:52.796Z,0.88
2023-03-20T14:11:15.178Z,1.10
2023-03-20T14:15:29.441Z,1.05
2023-03-20T14:17:34.387Z,1.23
2023-03-20T14:21:48.292Z,1.10
2023-03-20T14:23:58.949Z,1.02
2023-03-20T14:26:10.586Z,1.08
2023-03-20T14:28:29.057Z,0.73
2023-03-20T14:30:42.562Z,1.00
2023-03-20T14:33:00.593Z,0.80
2023-03-20T14:35:25.091Z,1.10
2023-03-20T14:37:33.482Z,1.00
2023-03-20T14:39:48.504Z,0.88
2023-03-20T14:42:35.752Z,0.88
2023-03-20T14:45:00.576Z,1.25
2023-03-20T14:47:13.477Z,1.00
2023-03-20T14:49:27.978Z,0.90
2023-03-20T14:51:43.043Z,0.90
2023-03-20T14:53:57.376Z,1.13
2023-03-20T14:56:10.245Z,1.33
2023-03-20T14:58:43.769Z,1.98
2023-03-20T15:00:49.150Z,1.90
2023-03-20T15:02:55.445Z,0.73
2023-03-20T15:04:59.566Z,0.77
2023-03-20T15:07:06.196Z,0.98
2023-03-20T15:09:13.072Z,1.10
2023-03-20T15:11:18.092Z,0.85
2023-03-20T15:13:22.778Z,1.10
2023-03-20T15:15:31.685Z,1.70
2023-03-20T15:17:39.552Z,5.80
2023-03-20T15:19:46.855Z,1.63
2023-03-20T15:21:51.047Z,0.93
2023-03-20T15:23:54.817Z,0.82
2023-03-20T15:26:03.350Z,1.00
2023-03-20T15:28:07.672Z,1.10
2023-03-20T15:30:15.184Z,0.82
2023-03-20T15:32:21.318Z,0.82
2023-03-20T15:34:29.063Z,0.90
2023-03-20T15:36:37.273Z,1.00
2023-03-20T15:38:41.131Z,0.90
2023-03-20T15:40:51.184Z,0.90
2023-03-20T15:42:57.020Z,0.80
2023-03-20T15:45:01.750Z,1.02
2023-03-20T15:49:20.720Z,0.80
2023-03-20T15:51:28.660Z,0.80
2023-03-20T15:53:35.551Z,0.90
2023-03-20T15:55:39.876Z,1.00
2023-03-20T15:57:48.000Z,1.00
2023-03-20T15:59:52.834Z,1.13
2023-03-20T16:04:14.892Z,1.23
2023-03-20T16:06:24.152Z,1.13
2023-03-20T16:08:31.228Z,0.95
2023-03-20T16:10:36.876Z,0.77
2023-03-20T16:12:41.262Z,1.08
2023-03-20T16:14:48.011Z,1.30
2023-03-20T16:16:54.562Z,1.10
2023-03-20T16:18:59.393Z,0.90
2023-03-20T16:23:11.399Z,0.95
2023-03-20T16:25:18.795Z,0.70
2023-03-20T16:27:27.853Z,0.80
2023-03-20T16:29:31.760Z,1.17
2023-03-20T16:31:37.239Z,0.90
2023-03-20T16:33:42.577Z,0.80
2023-03-20T16:35:49.243Z,0.98
2023-03-20T16:37:55.942Z,1.00
2023-03-20T16:40:17.413Z,1.15
2023-03-20T16:42:25.462Z,1.38
2023-03-20T16:44:34.305Z,1.00
2023-03-20T16:46:38.215Z,0.75
2023-03-20T16:48:43.864Z,0.90
2023-03-20T16:50:53.400Z,1.10
2023-03-20T16:53:00.235Z,1.45
2023-03-20T16:55:03.968Z,1.02
2023-03-20T16:57:17.387Z,1.08
2023-03-20T16:59:21.986Z,1.15
2023-03-20T17:01:28.952Z,0.90
2023-03-20T17:03:38.332Z,1.08
2023-03-20T17:05:51.386Z,1.17
2023-03-20T17:08:06.944Z,0.98
2023-03-20T17:10:21.854Z,1.50
2023-03-20T17:12:29.407Z,0.98
2023-03-20T17:14:34.177Z,1.27
2023-03-20T17:16:40.532Z,1.50
2023-03-20T17:18:46.571Z,1.00
2023-03-20T17:20:50.221Z,1.00
2023-03-20T17:22:54.507Z,1.30
2023-03-20T17:24:58.725Z,1.65
2023-03-20T17:27:02.430Z,1.48
2023-03-20T17:29:08.087Z,1.60
2023-03-20T17:31:16.145Z,1.33
2023-03-20T17:33:22.407Z,1.40
2023-03-20T17:35:26.104Z,1.33
2023-03-20T17:37:31.203Z,1.25
2023-03-20T17:39:35.380Z,1.60
2023-03-20T17:41:39.349Z,0.95
2023-03-20T17:43:43.372Z,1.20
2023-03-20T17:45:49.396Z,0.90
2023-03-20T17:47:54.970Z,1.13
2023-03-20T17:49:58.768Z,1.30
2023-03-20T17:52:05.142Z,1.83
2023-03-20T17:54:08.735Z,2.20
2023-03-20T17:56:14.317Z,2.25
2023-03-20T17:58:21.247Z,3.53
2023-03-20T18:00:27.203Z,1.85
2023-03-20T18:02:32.754Z,2.90
2023-03-20T18:04:37.463Z,18.90
2023-03-20T18:06:41.745Z,13.68
2023-03-20T18:08:47.266Z,9.65
2023-03-20T18:10:52.284Z,2.30
2023-03-20T18:12:57.017Z,4.15
2023-03-20T18:15:01.055Z,37.58
2023-03-20T18:17:06.293Z,86.13
2023-03-20T18:19:24.477Z,24.27
2023-03-20T18:21:28.625Z,67.60
2023-03-20T18:23:32.406Z,150.75
2023-03-20T18:25:36.407Z,168.40
2023-03-20T18:27:40.382Z,34.20
2023-03-20T18:29:45.024Z,4.10
2023-03-20T18:31:50.544Z,84.40
2023-03-20T18:33:55.709Z,36.45
2023-03-20T18:36:02.633Z,15.60
2023-03-20T18:38:07.900Z,1.95
2023-03-20T18:40:20.296Z,38.40
2023-03-20T18:42:26.931Z,78.50
2023-03-20T18:44:32.210Z,4.07
2023-03-20T18:46:36.686Z,2.47
2023-03-20T18:48:41.455Z,8.20
2023-03-20T18:50:51.232Z,11.13
2023-03-20T18:52:58.508Z,1.40
2023-03-20T18:55:07.665Z,3.90
2023-03-20T18:57:15.541Z,1.35
2023-03-20T18:59:19.744Z,1.55
2023-03-20T19:01:24.894Z,1.30
2023-03-20T19:03:29.717Z,3.13
2023-03-20T19:05:33.714Z,3.38
2023-03-20T19:07:37.508Z,3.05
2023-03-20T19:09:43.976Z,3.30
2023-03-20T19:11:49.744Z,3.72
2023-03-20T19:13:55.587Z,3.65
2023-03-20T19:15:59.922Z,4.93
2023-03-20T19:18:05.529Z,4.05
2023-03-20T19:20:30.237Z,4.13
2023-03-20T19:22:34.824Z,3.55
2023-03-20T19:24:40.591Z,4.32
2023-03-20T19:26:46.608Z,4.68
2023-03-20T19:28:51.015Z,4.97
2023-03-20T19:30:56.507Z,6.10
2023-03-20T19:33:02.448Z,7.38
2023-03-20T19:37:33.041Z,6.72
2023-03-20T19:39:37.434Z,7.53
2023-03-20T19:41:42.838Z,4.55
2023-03-20T19:43:52.865Z,3.08
2023-03-20T19:45:59.454Z,1.90
2023-03-20T19:48:05.543Z,1.40
2023-03-20T19:50:27.862Z,2.00
2023-03-20T19:52:35.503Z,1.52
2023-03-20T19:54:50.078Z,1.48
2023-03-20T19:57:04.652Z,28.83
2023-03-20T19:59:10.529Z,2.50
2023-03-20T20:01:19.945Z,0.52
2023-03-20T20:03:27.441Z,1.25
2023-03-20T20:05:33.405Z,1.13
2023-03-20T20:10:03.930Z,2.88
2023-03-20T20:12:08.873Z,2.60
2023-03-20T20:14:15.298Z,1.40
2023-03-20T20:16:19.708Z,1.80
2023-03-20T20:18:26.520Z,4.30
2023-03-20T20:20:34.460Z,20.25
2023-03-20T20:22:39.625Z,9.25
2023-03-20T20:24:43.988Z,18.60
2023-03-20T20:26:55.302Z,2.78
2023-03-20T20:29:04.268Z,11.95
2023-03-20T20:31:09.693Z,16.60
2023-03-20T20:33:14.410Z,11.20
2023-03-20T20:40:09.898Z,5.80
2023-03-20T20:42:14.727Z,9.27
2023-03-20T20:46:24.795Z,4.22
2023-03-20T20:48:29.392Z,18.25
2023-03-20T20:50:36.171Z,15.25
2023-03-20T20:52:43.130Z,4.95
2023-03-20T20:54:48.124Z,5.15
2023-03-20T20:56:52.961Z,2.63
2023-03-20T20:58:56.752Z,7.47
2023-03-20T21:01:02.780Z,2.30
2023-03-20T21:03:08.870Z,64.50
2023-03-20T21:05:15.139Z,39.17
2023-03-20T21:07:19.341Z,1.92
2023-03-20T21:09:24.527Z,45.40
2023-03-20T21:11:29.302Z,60.53
2023-03-20T21:13:34.714Z,14.02
2023-03-20T21:15:39.722Z,1.33
2023-03-20T21:17:57.860Z,25.85
2023-03-20T21:20:05.702Z,1.13
2023-03-20T21:22:11.555Z,11.65
2023-03-20T21:24:31.735Z,1.20
2023-03-20T21:26:36.365Z,1.65
2023-03-20T21:28:40.346Z,2.17
2023-03-20T21:31:04.229Z,1.10
2023-03-20T21:33:07.874Z,1.20
2023-03-20T21:35:14.157Z,2.15
2023-03-20T21:39:42.795Z,1.52
2023-03-20T21:41:47.351Z,0.70
2023-03-20T21:43:51.563Z,0.63
2023-03-20T21:48:56.524Z,0.90
2023-03-20T21:56:27.755Z,0.50
2023-03-20T22:02:48.913Z,5.55
2023-03-20T22:08:09.567Z,6.97
2023-03-20T22:10:21.671Z,2.65
2023-03-20T22:12:56.280Z,0.80
2023-03-20T22:15:20.064Z,2.10
2023-03-20T22:17:43.540Z,6.00
2023-03-20T22:22:50.492Z,16.42
2023-03-20T22:24:52.525Z,2.13
2023-03-20T22:32:07.848Z,2.08
2023-03-20T22:34:32.222Z,19.60
2023-03-20T22:41:59.268Z,4.82
2023-03-20T22:46:03.649Z,20.08
2023-03-20T22:48:15.580Z,1.10
2023-03-20T22:50:19.376Z,10.90
2023-03-20T22:52:34.719Z,4.90
2023-03-20T22:54:45.542Z,5.53
2023-03-20T22:56:50.600Z,1.20
2023-03-20T22:58:54.505Z,9.23
2023-03-20T23:00:58.498Z,0.85
2023-03-20T23:03:33.460Z,33.30
2023-03-20T23:05:26.334Z,0.50
2023-03-20T23:07:30.295Z,3.92
2023-03-20T23:09:34.245Z,28.08
2023-03-20T23:11:40.987Z,3.17
2023-03-20T23:13:46.423Z,20.65
2023-03-20T23:15:50.905Z,36.67
2023-03-20T23:17:54.768Z,11.70
2023-03-20T23:20:10.380Z,2.80
2023-03-20T23:22:15.263Z,13.27
2023-03-20T23:24:18.782Z,22.17
2023-03-20T23:26:23.014Z,4.03
2023-03-20T23:28:26.555Z,15.77
2023-03-20T23:30:43.409Z,4.63
2023-03-20T23:32:48.923Z,1.55
2023-03-20T23:34:53.691Z,2.28
2023-03-20T23:36:57.604Z,1.75
2023-03-20T23:39:01.546Z,5.78
2023-03-20T23:41:06.209Z,2.25
2023-03-20T23:43:10.058Z,1.25
2023-03-20T23:45:20.565Z,3.20
2023-03-20T23:47:30.067Z,1.42
2023-03-20T23:49:39.967Z,0.40
2023-03-20T23:51:44.608Z,0.90
2023-03-20T23:53:48.800Z,3.03
2023-03-20T23:55:55.974Z,0.80
2023-03-20T23:57:59.754Z,0.90
